Wetterdaten: aktuell Freitag, 12.07.2024 20:52
Datum Zeit Temp. A. Feuchte A. Luftdruck Regen Wind Richtung Richtung Taupunkt Windchill
12.07.2024 20:52 22,2 C 50 % 1002,9 hPa 0,0 l/m 13,1 km/h (3 Bft) NW67.5 310 11,3 C 20,3 C
12.07.2024 20:50 22,4 C 49 % 1002,9 hPa 0,0 l/m 19,2 km/h (3 Bft) NW67.5 320 11,2 C 19,4 C
12.07.2024 20:48 22,4 C 49 % 1002,9 hPa 0,0 l/m 19,2 km/h (3 Bft) NW67.5 320 11,2 C 19,4 C
12.07.2024 20:46 22,5 C 48 % 1002,9 hPa 0,0 l/m 14,7 km/h (3 Bft) W-NW67.5 285 10,9 C 20,3 C
12.07.2024 20:44 22,9 C 48 % 1002,8 hPa 0,0 l/m 1,6 km/h (1 Bft) NW67.5 320 11,3 C 22,9 C
12.07.2024 20:42 22,9 C 48 % 1002,8 hPa 0,0 l/m 11,0 km/h (2 Bft) N-NW67.5 335 11,3 C 21,6 C
12.07.2024 20:40 23,0 C 48 % 1002,8 hPa 0,0 l/m 11,0 km/h (2 Bft) N-NW67.5 335 11,4 C 21,7 C
12.07.2024 20:39 23,2 C 47 % 1002,8 hPa 0,0 l/m 9,6 km/h (2 Bft) NW67.5 310 11,3 C 22,3 C
12.07.2024 20:37 23,2 C 47 % 1002,8 hPa 0,0 l/m 13,0 km/h (3 Bft) NW45 315 11,3 C 21,5 C
12.07.2024 20:34 23,4 C 47 % 1002,8 hPa 0,0 l/m 13,0 km/h (3 Bft) NW45 315 11,4 C 21,7 C
12.07.2024 20:32 23,6 C 46 % 1002,8 hPa 0,0 l/m 15,8 km/h (3 Bft) NW67.5 320 11,3 C 21,5 C
12.07.2024 20:30 23,6 C 46 % 1002,8 hPa 0,0 l/m 9,0 km/h (2 Bft) NW67.5 315 11,3 C 22,9 C
12.07.2024 20:28 24,0 C 45 % 1002,8 hPa 0,0 l/m 12,8 km/h (3 Bft) N-NW67.5 330 11,3 C 22,5 C
12.07.2024 20:26 24,0 C 45 % 1002,8 hPa 0,0 l/m 12,8 km/h (3 Bft) N-NW67.5 330 11,3 C 22,5 C
12.07.2024 20:24 24,0 C 45 % 1002,8 hPa 0,0 l/m 11,6 km/h (2 Bft) NW67.5 310 11,3 C 22,7 C
12.07.2024 20:22 24,2 C 45 % 1002,8 hPa 0,0 l/m 13,5 km/h (3 Bft) NW67.5 310 11,5 C 22,6 C
12.07.2024 20:20 24,4 C 44 % 1002,8 hPa 0,0 l/m 14,0 km/h (3 Bft) NW45 325 11,3 C 22,7 C
12.07.2024 20:18 24,4 C 44 % 1002,8 hPa 0,0 l/m 14,0 km/h (3 Bft) NW45 325 11,3 C 22,7 C
12.07.2024 20:16 24,2 C 44 % 1002,8 hPa 0,0 l/m 10,8 km/h (2 Bft) NW67.5 325 11,2 C 23,1 C
12.07.2024 20:14 24,8 C 42 % 1001,8 hPa 0,0 l/m 3,3 km/h (1 Bft) NW22.5 310 11,0 C 24,8 C
12.07.2024 20:12 24,8 C 42 % 1001,8 hPa 0,0 l/m 3,3 km/h (1 Bft) NW22.5 310 11,0 C 24,8 C
12.07.2024 20:10 24,9 C 42 % 1001,7 hPa 0,0 l/m 13,5 km/h (3 Bft) NW45 320 11,1 C 23,4 C
12.07.2024 20:08 25,0 C 41 % 1001,7 hPa 0,0 l/m 11,5 km/h (2 Bft) N-NW22.5 330 10,8 C 23,9 C
12.07.2024 20:06 25,0 C 41 % 1001,7 hPa 0,0 l/m 0,0 km/h (0 Bft) N-NW 335 10,8 C 25,0 C
12.07.2024 20:04 25,0 C 41 % 1001,7 hPa 0,0 l/m 0,0 km/h (0 Bft) N-NW 335 10,8 C 25,0 C
12.07.2024 20:02 25,1 C 40 % 1001,7 hPa 0,0 l/m 10,2 km/h (2 Bft) N-NW67.5 330 10,5 C 24,2 C
12.07.2024 20:00 25,2 C 40 % 1001,7 hPa 0,0 l/m 8,4 km/h (2 Bft) NW67.5 320 10,6 C 24,7 C
12.07.2024 19:58 25,2 C 40 % 1001,7 hPa 0,0 l/m 13,2 km/h (3 Bft) NW45 320 10,6 C 23,8 C
12.07.2024 19:57 25,3 C 40 % 1001,7 hPa 0,0 l/m 13,2 km/h (3 Bft) NW45 320 10,7 C 23,9 C
12.07.2024 19:54 25,3 C 39 % 1001,7 hPa 0,0 l/m 6,6 km/h (2 Bft) NW22.5 320 10,3 C 25,3 C
12.07.2024 19:52 25,3 C 39 % 1001,7 hPa 0,0 l/m 0,0 km/h (0 Bft) NW 315 10,3 C 25,3 C
12.07.2024 19:50 25,4 C 38 % 1001,7 hPa 0,0 l/m 0,0 km/h (0 Bft) NW 315 10,0 C 25,4 C
12.07.2024 19:48 25,5 C 37 % 1001,7 hPa 0,0 l/m 8,7 km/h (2 Bft) NW22.5 320 9,7 C 25,0 C
12.07.2024 19:46 25,5 C 37 % 1001,7 hPa 0,0 l/m 1,8 km/h (1 Bft) NW 320 9,7 C 25,5 C
12.07.2024 19:44 25,7 C 37 % 1001,7 hPa 0,0 l/m 11,3 km/h (2 Bft) NW22.5 320 9,9 C 24,7 C
12.07.2024 19:42 25,8 C 37 % 1001,7 hPa 0,0 l/m 11,3 km/h (2 Bft) NW22.5 320 10,0 C 24,8 C
12.07.2024 19:40 25,8 C 37 % 1001,7 hPa 0,0 l/m 7,9 km/h (2 Bft) NW22.5 315 10,0 C 25,5 C
12.07.2024 19:38 25,9 C 37 % 1001,7 hPa 0,0 l/m 2,6 km/h (1 Bft) NW22.5 315 10,1 C 25,9 C
12.07.2024 19:36 25,9 C 36 % 1001,7 hPa 0,0 l/m 2,6 km/h (1 Bft) NW22.5 315 9,7 C 25,9 C
12.07.2024 19:34 25,9 C 36 % 1001,7 hPa 0,0 l/m 8,3 km/h (2 Bft) NW22.5 315 9,7 C 25,5 C
12.07.2024 19:32 26,0 C 36 % 1001,7 hPa 0,0 l/m 4,1 km/h (1 Bft) NW 320 9,8 C 26,0 C
_ Min-Zeit 06:56 17:28 14:54 - 00:00 - - 18:24 08:22
Minimum _ 19,2 C 30 % 1001,6 hPa - 0,0 km/h (0 Bft) - - 8,5 C 19,2 C
_ Max-Zeit 14:54 07:22 00:04 06:46 20:48 - - 10:20 14:56
Maximum _ 29,0 C 88 % 1008,9 hPa 2,5 l/m 19,2 km/h
NW (3 Bft)
- - 19,4 C 29,0 C
Durchschnitt _ 23,8 C 63 % 1003,8 hPa #5,4 l/m 4,1 km/h (1 Bft) NW - 15,2 C 23,6 C